createdAt,value
2023-02-28T00:00:02.231Z,5.28
2023-02-28T00:02:32.065Z,6.75
2023-02-28T00:05:02.063Z,4.68
2023-02-28T00:07:29.412Z,6.50
2023-02-28T00:09:56.687Z,8.27
2023-02-28T00:12:23.933Z,8.40
2023-02-28T00:14:51.578Z,7.32
2023-02-28T00:17:18.897Z,7.43
2023-02-28T00:19:46.490Z,4.22
2023-02-28T00:22:13.770Z,5.57
2023-02-28T00:24:41.041Z,3.42
2023-02-28T00:27:08.324Z,6.68
2023-02-28T00:29:35.577Z,9.02
2023-02-28T00:32:03.012Z,5.90
2023-02-28T00:34:30.477Z,5.75
2023-02-28T00:36:57.800Z,4.03
2023-02-28T00:39:25.914Z,6.70
2023-02-28T00:41:53.143Z,4.25
2023-02-28T00:44:22.591Z,5.88
2023-02-28T00:46:49.872Z,6.03
2023-02-28T00:49:17.126Z,4.97
2023-02-28T00:51:44.421Z,6.70
2023-02-28T00:54:11.693Z,4.60
2023-02-28T00:56:39.022Z,5.13
2023-02-28T00:59:06.399Z,5.30
2023-02-28T01:01:33.728Z,4.85
2023-02-28T01:04:01.074Z,5.38
2023-02-28T01:06:28.400Z,4.00
2023-02-28T01:08:55.652Z,5.20
2023-02-28T01:11:23.477Z,4.22
2023-02-28T01:13:50.803Z,7.15
2023-02-28T01:16:18.153Z,6.35
2023-02-28T01:18:46.452Z,4.90
2023-02-28T01:21:15.675Z,7.22
2023-02-28T01:23:43.344Z,4.70
2023-02-28T01:26:15.887Z,3.90
2023-02-28T01:28:43.303Z,6.68
2023-02-28T01:31:11.090Z,5.30
2023-02-28T01:33:39.377Z,4.05
2023-02-28T01:36:08.121Z,4.43
2023-02-28T01:38:36.747Z,6.65
2023-02-28T01:41:04.121Z,7.10
2023-02-28T01:43:33.130Z,5.18
2023-02-28T01:46:00.818Z,5.43
2023-02-28T01:48:29.661Z,6.13
2023-02-28T01:51:00.882Z,4.78
2023-02-28T01:53:31.899Z,7.43
2023-02-28T01:55:59.311Z,7.75
2023-02-28T01:58:26.595Z,6.20
2023-02-28T02:00:53.924Z,5.93
2023-02-28T02:03:21.847Z,6.30
2023-02-28T02:05:49.432Z,7.38
2023-02-28T02:08:21.564Z,4.88
2023-02-28T02:10:50.292Z,5.28
2023-02-28T02:13:35.922Z,3.25
2023-02-28T02:16:08.705Z,5.95
2023-02-28T02:18:42.751Z,5.80
2023-02-28T02:21:09.991Z,5.82
2023-02-28T02:23:52.357Z,6.68
2023-02-28T02:26:26.281Z,7.10
2023-02-28T02:29:14.826Z,5.35
2023-02-28T02:32:01.473Z,5.95
2023-02-28T02:34:28.764Z,6.55
2023-02-28T02:37:14.270Z,5.38
2023-02-28T02:40:02.056Z,8.70
2023-02-28T02:42:35.244Z,4.97
2023-02-28T02:45:10.701Z,5.93
2023-02-28T02:47:38.998Z,5.55
2023-02-28T02:50:12.892Z,5.32
2023-02-28T02:52:45.226Z,5.45
2023-02-28T02:55:14.883Z,6.70
2023-02-28T02:57:48.108Z,5.13
2023-02-28T03:00:16.218Z,5.57
2023-02-28T03:02:45.029Z,7.00
2023-02-28T03:05:44.813Z,6.20
2023-02-28T03:08:12.472Z,5.40
2023-02-28T03:10:41.641Z,7.20
2023-02-28T03:16:03.212Z,5.90
2023-02-28T03:18:46.020Z,7.82
2023-02-28T03:21:20.789Z,6.93
2023-02-28T03:23:57.390Z,7.40
2023-02-28T03:26:25.788Z,5.90
2023-02-28T03:29:04.930Z,6.10
2023-02-28T03:31:35.231Z,6.45
2023-02-28T03:34:05.517Z,7.10
2023-02-28T03:36:37.423Z,8.23
2023-02-28T03:39:09.558Z,7.93
2023-02-28T03:41:50.668Z,4.50
2023-02-28T03:44:31.234Z,6.63
2023-02-28T03:47:10.829Z,5.70
2023-02-28T03:49:44.573Z,7.20
2023-02-28T03:52:11.848Z,7.75
2023-02-28T03:54:43.012Z,9.25
2023-02-28T03:57:29.070Z,7.25
2023-02-28T03:59:58.660Z,7.55
2023-02-28T04:02:25.902Z,8.45
2023-02-28T04:04:53.215Z,8.18
2023-02-28T04:07:20.458Z,7.60
2023-02-28T04:09:47.694Z,8.93
2023-02-28T04:12:17.143Z,8.07
2023-02-28T04:14:44.333Z,11.60
2023-02-28T04:17:11.664Z,9.55
2023-02-28T04:19:38.911Z,9.73
2023-02-28T04:22:06.211Z,6.43
2023-02-28T04:24:33.482Z,9.85
2023-02-28T04:27:00.869Z,11.05
2023-02-28T04:29:29.246Z,11.70
2023-02-28T04:32:00.248Z,6.93
2023-02-28T04:34:28.432Z,12.38
2023-02-28T04:37:11.983Z,9.85
2023-02-28T04:39:40.619Z,8.00
2023-02-28T04:42:07.956Z,10.93
2023-02-28T04:44:35.380Z,7.50
2023-02-28T04:47:02.706Z,8.57
2023-02-28T04:49:30.111Z,13.13
2023-02-28T04:51:57.361Z,7.65
2023-02-28T04:54:24.631Z,7.65
2023-02-28T04:56:51.896Z,10.07
2023-02-28T04:59:19.512Z,7.70
2023-02-28T05:01:47.996Z,9.48
2023-02-28T05:04:15.344Z,9.53
2023-02-28T05:06:42.644Z,7.22
2023-02-28T05:09:12.426Z,8.70
2023-02-28T05:11:40.415Z,10.23
2023-02-28T05:14:10.827Z,8.98
2023-02-28T05:16:38.074Z,9.52
2023-02-28T05:19:05.392Z,10.75
2023-02-28T05:21:36.874Z,9.07
2023-02-28T05:24:06.046Z,10.30
2023-02-28T05:26:35.928Z,8.75
2023-02-28T05:29:03.192Z,9.60
2023-02-28T05:31:30.933Z,10.70
2023-02-28T05:33:58.484Z,11.27
2023-02-28T05:36:25.780Z,12.15
2023-02-28T05:38:53.372Z,16.58
2023-02-28T05:41:21.155Z,13.25
2023-02-28T05:43:48.898Z,10.60
2023-02-28T05:46:16.192Z,12.05
2023-02-28T05:48:44.089Z,10.43
2023-02-28T05:51:11.562Z,14.13
2023-02-28T05:53:38.835Z,15.00
2023-02-28T05:56:06.225Z,12.48
2023-02-28T05:58:33.571Z,14.18
2023-02-28T06:01:01.692Z,11.80
2023-02-28T06:03:29.065Z,10.60
2023-02-28T06:05:56.335Z,10.43
2023-02-28T06:08:23.569Z,11.27
2023-02-28T06:10:50.784Z,13.57
2023-02-28T06:13:18.132Z,15.57
2023-02-28T06:15:45.322Z,13.85
2023-02-28T06:18:12.817Z,12.25
2023-02-28T06:20:40.230Z,13.05
2023-02-28T06:23:07.503Z,11.05
2023-02-28T06:25:34.820Z,9.00
2023-02-28T06:28:02.558Z,12.50
2023-02-28T06:30:31.035Z,13.50
2023-02-28T06:32:58.297Z,12.73
2023-02-28T06:35:25.857Z,12.05
2023-02-28T06:37:53.128Z,10.57
2023-02-28T06:40:20.471Z,10.85
2023-02-28T06:42:47.725Z,9.82
2023-02-28T06:45:15.033Z,7.50
2023-02-28T06:47:42.970Z,8.02
2023-02-28T06:50:13.312Z,7.88
2023-02-28T06:52:40.873Z,7.72
2023-02-28T06:55:08.847Z,8.35
2023-02-28T06:57:37.126Z,9.13
2023-02-28T07:00:09.458Z,8.43
2023-02-28T07:02:38.416Z,8.93
2023-02-28T07:05:06.793Z,7.88
2023-02-28T07:07:34.302Z,8.17
2023-02-28T07:10:01.589Z,8.40
2023-02-28T07:12:28.842Z,15.10
2023-02-28T07:14:56.898Z,12.43
2023-02-28T07:17:24.172Z,9.52
2023-02-28T07:19:51.423Z,13.50
2023-02-28T07:22:18.762Z,7.97
2023-02-28T07:24:46.029Z,10.18
2023-02-28T07:27:13.299Z,10.07
2023-02-28T07:29:40.483Z,10.35
2023-02-28T07:32:07.773Z,9.88
2023-02-28T07:34:35.124Z,9.52
2023-02-28T07:37:04.778Z,8.95
2023-02-28T07:39:32.049Z,9.65
2023-02-28T07:42:00.659Z,13.75
2023-02-28T07:44:28.418Z,9.35
2023-02-28T07:46:55.709Z,8.20
2023-02-28T07:49:22.978Z,10.35
2023-02-28T07:51:50.225Z,12.45
2023-02-28T07:54:17.496Z,10.65
2023-02-28T07:56:44.734Z,10.73
2023-02-28T07:59:11.958Z,14.85
2023-02-28T08:01:39.256Z,13.15
2023-02-28T08:04:06.605Z,14.52
2023-02-28T08:06:33.931Z,11.27
2023-02-28T08:09:01.189Z,10.88
2023-02-28T08:11:28.780Z,13.75
2023-02-28T08:13:56.627Z,12.80
2023-02-28T08:16:24.110Z,14.18
2023-02-28T08:18:51.975Z,13.88
2023-02-28T08:21:19.579Z,13.63
2023-02-28T08:23:49.917Z,20.95
2023-02-28T08:26:20.517Z,13.73
2023-02-28T08:28:47.929Z,16.52
2023-02-28T08:31:16.654Z,12.88
2023-02-28T08:33:45.564Z,14.32
2023-02-28T08:36:13.005Z,14.52
2023-02-28T08:38:40.370Z,15.02
2023-02-28T08:41:09.877Z,14.55
2023-02-28T08:43:37.404Z,12.25
2023-02-28T08:46:05.200Z,13.57
2023-02-28T08:48:33.546Z,14.65
2023-02-28T08:51:07.849Z,13.68
2023-02-28T08:53:36.073Z,14.73
2023-02-28T08:56:21.979Z,15.23
2023-02-28T08:58:49.865Z,10.80
2023-02-28T09:01:21.415Z,11.98
2023-02-28T09:03:49.544Z,13.35
2023-02-28T09:06:17.340Z,12.82
2023-02-28T09:08:44.644Z,11.75
2023-02-28T09:11:11.873Z,16.05
2023-02-28T09:13:39.732Z,14.40
2023-02-28T09:16:07.627Z,12.77
2023-02-28T09:18:38.759Z,12.73
2023-02-28T09:21:07.123Z,11.70
2023-02-28T09:23:34.560Z,13.27
2023-02-28T09:26:01.975Z,11.85
2023-02-28T09:28:29.269Z,11.68
2023-02-28T09:30:58.549Z,11.82
2023-02-28T09:35:58.875Z,11.27
2023-02-28T09:38:26.244Z,10.05
2023-02-28T09:40:55.352Z,11.32
2023-02-28T09:43:24.139Z,9.73
2023-02-28T09:45:59.628Z,11.30
2023-02-28T09:48:29.167Z,12.13
2023-02-28T09:51:05.681Z,13.40
2023-02-28T09:53:35.121Z,9.00
2023-02-28T09:56:02.376Z,11.05
2023-02-28T09:58:52.750Z,10.90
2023-02-28T10:01:29.506Z,10.80
2023-02-28T10:04:12.664Z,9.40
2023-02-28T10:06:51.847Z,9.93
2023-02-28T10:09:26.214Z,10.10
2023-02-28T10:11:56.027Z,9.95
2023-02-28T10:14:26.061Z,9.82
2023-02-28T10:16:56.162Z,8.15
2023-02-28T10:19:42.461Z,8.35
2023-02-28T10:22:19.031Z,8.27
2023-02-28T10:24:46.315Z,8.38
2023-02-28T10:27:21.194Z,11.98
2023-02-28T10:29:52.842Z,7.15
2023-02-28T10:32:22.002Z,7.40
2023-02-28T10:35:12.587Z,7.72
2023-02-28T10:37:40.752Z,10.43
2023-02-28T10:40:09.637Z,9.43
2023-02-28T10:42:39.920Z,7.70
2023-02-28T10:45:16.926Z,8.60
2023-02-28T10:47:56.479Z,7.45
2023-02-28T10:50:29.606Z,7.63
2023-02-28T10:52:56.998Z,6.70
2023-02-28T10:55:26.586Z,6.65
2023-02-28T10:57:54.916Z,4.55
2023-02-28T11:00:23.768Z,8.73
2023-02-28T11:02:51.078Z,6.97
2023-02-28T11:05:35.307Z,5.97
2023-02-28T11:08:08.347Z,6.68
2023-02-28T11:10:35.868Z,5.68
2023-02-28T11:13:04.597Z,6.05
2023-02-28T11:15:33.931Z,4.93
2023-02-28T11:20:30.025Z,4.50
2023-02-28T11:22:58.661Z,5.63
2023-02-28T11:25:28.211Z,7.47
2023-02-28T11:28:01.926Z,3.95
2023-02-28T11:30:29.306Z,6.38
2023-02-28T11:32:56.838Z,6.57
2023-02-28T11:35:38.417Z,7.95
2023-02-28T11:38:06.876Z,16.02
2023-02-28T11:40:52.724Z,10.23
2023-02-28T11:43:22.943Z,4.93
2023-02-28T11:45:50.279Z,7.25
2023-02-28T11:48:20.283Z,6.07
2023-02-28T11:50:47.529Z,4.88
2023-02-28T11:53:33.978Z,7.45
2023-02-28T11:56:01.164Z,5.60
2023-02-28T11:58:37.195Z,5.50
2023-02-28T12:01:27.766Z,5.40
2023-02-28T12:04:01.518Z,4.13
2023-02-28T12:06:39.944Z,4.90
2023-02-28T12:09:26.034Z,3.87
2023-02-28T12:11:55.762Z,3.95
2023-02-28T12:14:38.276Z,4.30
2023-02-28T12:17:05.735Z,6.20
2023-02-28T12:19:35.987Z,4.78
2023-02-28T12:22:26.175Z,4.57
2023-02-28T12:24:56.498Z,6.03
2023-02-28T12:27:27.649Z,4.93
2023-02-28T12:29:55.731Z,4.70
2023-02-28T12:32:29.211Z,5.22
2023-02-28T12:35:03.137Z,5.85
2023-02-28T12:37:39.534Z,6.78
2023-02-28T12:40:08.413Z,4.60
2023-02-28T12:42:39.622Z,5.55
2023-02-28T12:45:11.434Z,5.22
2023-02-28T12:47:40.043Z,3.17
2023-02-28T12:50:12.782Z,4.53
2023-02-28T12:52:56.847Z,3.30
2023-02-28T12:55:42.947Z,3.35
2023-02-28T12:58:15.803Z,4.88
2023-02-28T13:01:06.251Z,3.67
2023-02-28T13:03:52.163Z,4.25
2023-02-28T13:06:55.068Z,4.80
2023-02-28T13:09:22.553Z,4.60
2023-02-28T13:11:53.991Z,3.33
2023-02-28T13:14:26.565Z,3.47
2023-02-28T13:16:57.213Z,2.97
2023-02-28T13:19:27.832Z,4.70
2023-02-28T13:21:55.906Z,4.57
2023-02-28T13:24:42.417Z,3.53
2023-02-28T13:27:10.743Z,5.25
2023-02-28T13:29:39.690Z,3.15
2023-02-28T13:32:10.265Z,4.80
2023-02-28T13:34:49.473Z,4.45
2023-02-28T13:39:44.466Z,3.55
2023-02-28T13:42:24.140Z,3.60
2023-02-28T13:45:06.556Z,3.30
2023-02-28T13:47:47.974Z,3.40
2023-02-28T13:50:27.500Z,4.60
2023-02-28T13:53:03.750Z,6.82
2023-02-28T13:55:33.785Z,4.55
2023-02-28T13:58:03.916Z,3.17
2023-02-28T14:00:44.505Z,3.97
2023-02-28T14:03:41.183Z,3.90
2023-02-28T14:06:11.431Z,4.00
2023-02-28T14:08:38.921Z,3.95
2023-02-28T14:11:07.973Z,3.40
2023-02-28T14:13:40.306Z,3.95
2023-02-28T14:16:08.372Z,3.88
2023-02-28T14:18:37.122Z,3.80
2023-02-28T14:21:10.545Z,3.63
2023-02-28T14:23:56.881Z,5.10
2023-02-28T14:26:24.122Z,3.30
2023-02-28T14:29:15.906Z,4.30
2023-02-28T14:31:46.793Z,4.50
2023-02-28T14:34:27.191Z,5.10
2023-02-28T14:36:55.790Z,5.10
2023-02-28T14:39:24.619Z,4.38
2023-02-28T14:41:52.880Z,3.83
2023-02-28T14:44:29.607Z,3.85
2023-02-28T14:46:58.521Z,6.45
2023-02-28T14:49:30.031Z,4.75
2023-02-28T14:52:16.249Z,5.15
2023-02-28T14:54:43.980Z,4.82
2023-02-28T14:57:24.707Z,6.47
2023-02-28T15:00:12.562Z,3.95
2023-02-28T15:02:40.836Z,6.88
2023-02-28T15:05:13.949Z,5.57
2023-02-28T15:07:41.219Z,5.22
2023-02-28T15:10:28.144Z,4.78
2023-02-28T15:12:57.356Z,4.70
2023-02-28T15:18:00.846Z,7.43
2023-02-28T15:20:28.194Z,5.55
2023-02-28T15:22:56.922Z,7.65
2023-02-28T15:25:24.470Z,6.70
2023-02-28T15:27:53.530Z,5.45
2023-02-28T15:30:27.259Z,5.32
2023-02-28T15:33:05.567Z,5.50
2023-02-28T15:35:34.185Z,9.20
2023-02-28T15:38:16.977Z,4.90
2023-02-28T15:40:54.593Z,7.72
2023-02-28T15:43:27.152Z,6.20
2023-02-28T15:45:59.432Z,7.78
2023-02-28T15:48:31.517Z,4.60
2023-02-28T15:51:02.678Z,6.72
2023-02-28T15:53:42.295Z,5.75
2023-02-28T15:56:22.303Z,5.20
2023-02-28T15:58:49.746Z,6.90
2023-02-28T16:01:27.292Z,6.03
2023-02-28T16:03:56.529Z,6.85
2023-02-28T16:06:23.749Z,6.65
2023-02-28T16:08:52.367Z,5.50
2023-02-28T16:11:20.427Z,6.78
2023-02-28T16:13:47.730Z,8.30
2023-02-28T16:16:19.314Z,9.43
2023-02-28T16:18:47.034Z,4.07
2023-02-28T16:21:14.239Z,6.95
2023-02-28T16:23:41.688Z,6.25
2023-02-28T16:26:09.821Z,5.80
2023-02-28T16:28:38.380Z,7.18
2023-02-28T16:31:07.626Z,8.40
2023-02-28T16:36:02.551Z,6.03
2023-02-28T16:38:29.882Z,5.45
2023-02-28T16:40:58.755Z,5.80
2023-02-28T16:43:27.084Z,5.15
2023-02-28T16:46:01.130Z,5.68
2023-02-28T16:48:28.953Z,9.23
2023-02-28T16:50:56.224Z,6.43
2023-02-28T16:53:23.451Z,5.55
2023-02-28T16:55:51.913Z,6.57
2023-02-28T16:58:20.250Z,5.70
2023-02-28T17:00:47.561Z,9.10
2023-02-28T17:03:32.013Z,9.63
2023-02-28T17:06:00.265Z,8.10
2023-02-28T17:08:29.703Z,5.93
2023-02-28T17:10:57.262Z,5.68
2023-02-28T17:13:24.542Z,7.22
2023-02-28T17:15:52.008Z,9.25
2023-02-28T17:18:20.523Z,6.40
2023-02-28T17:20:47.790Z,7.13
2023-02-28T17:23:15.156Z,7.93
2023-02-28T17:25:42.384Z,6.72
2023-02-28T17:28:10.599Z,7.70
2023-02-28T17:30:37.976Z,5.22
2023-02-28T17:33:07.389Z,8.05
2023-02-28T17:35:35.069Z,8.10
2023-02-28T17:38:02.302Z,6.97
2023-02-28T17:40:29.624Z,8.43
2023-02-28T17:42:57.730Z,10.07
2023-02-28T17:45:25.781Z,12.00
2023-02-28T17:47:53.002Z,8.02
2023-02-28T17:50:21.830Z,8.68
2023-02-28T17:52:49.436Z,7.18
2023-02-28T17:55:16.863Z,8.38
2023-02-28T17:57:44.222Z,8.45
2023-02-28T18:00:16.569Z,9.70
2023-02-28T18:02:44.120Z,10.23
2023-02-28T18:05:11.574Z,10.15
2023-02-28T18:07:39.452Z,12.80
2023-02-28T18:10:07.374Z,10.52
2023-02-28T18:12:34.792Z,12.25
2023-02-28T18:15:02.200Z,9.93
2023-02-28T18:17:29.603Z,10.95
2023-02-28T18:19:56.924Z,9.15
2023-02-28T18:22:24.218Z,11.95
2023-02-28T18:24:51.759Z,9.85
2023-02-28T18:27:19.012Z,9.77
2023-02-28T18:29:46.301Z,10.77
2023-02-28T18:32:13.608Z,11.90
2023-02-28T18:34:40.913Z,12.13
2023-02-28T18:37:08.209Z,10.43
2023-02-28T18:39:35.483Z,9.63
2023-02-28T18:42:02.681Z,11.48
2023-02-28T18:44:29.988Z,13.05
2023-02-28T18:46:57.349Z,13.38
2023-02-28T18:49:24.641Z,11.32
2023-02-28T18:51:52.879Z,10.05
2023-02-28T18:54:20.184Z,14.23
2023-02-28T18:56:47.463Z,13.15
2023-02-28T18:59:14.829Z,14.90
2023-02-28T19:01:42.177Z,13.02
2023-02-28T19:04:12.388Z,12.52
2023-02-28T19:06:40.110Z,13.23
2023-02-28T19:09:07.359Z,12.70
2023-02-28T19:11:36.586Z,16.08
2023-02-28T19:14:04.252Z,12.60
2023-02-28T19:16:31.837Z,12.68
2023-02-28T19:18:59.387Z,10.85
2023-02-28T19:21:27.040Z,13.25
2023-02-28T19:23:54.438Z,11.20
2023-02-28T19:26:23.139Z,14.57
2023-02-28T19:28:50.617Z,11.00
2023-02-28T19:31:22.402Z,12.77
2023-02-28T19:33:52.669Z,12.15
2023-02-28T19:36:20.359Z,14.32
2023-02-28T19:38:47.697Z,12.23
2023-02-28T19:41:15.739Z,12.40
2023-02-28T19:43:43.080Z,12.77
2023-02-28T19:46:10.508Z,12.63
2023-02-28T19:48:37.876Z,13.88
2023-02-28T19:51:07.271Z,14.45
2023-02-28T19:53:35.493Z,11.50
2023-02-28T19:56:04.197Z,14.13
2023-02-28T19:58:31.841Z,13.73
2023-02-28T20:01:01.270Z,14.65
2023-02-28T20:03:28.630Z,15.85
2023-02-28T20:06:00.478Z,13.82
2023-02-28T20:08:27.977Z,12.48
2023-02-28T20:10:55.271Z,14.38
2023-02-28T20:13:27.918Z,14.93
2023-02-28T20:15:55.699Z,11.20
2023-02-28T20:18:22.984Z,14.95
2023-02-28T20:20:50.217Z,14.38
2023-02-28T20:23:17.535Z,13.00
2023-02-28T20:25:44.840Z,13.07
2023-02-28T20:28:12.086Z,14.63
2023-02-28T20:30:41.938Z,15.25
2023-02-28T20:33:09.362Z,14.70
2023-02-28T20:35:36.773Z,14.63
2023-02-28T20:38:04.037Z,14.93
2023-02-28T20:40:31.296Z,15.35
2023-02-28T20:42:58.557Z,13.25
2023-02-28T20:45:25.842Z,15.18
2023-02-28T20:47:53.081Z,15.80
2023-02-28T20:50:20.494Z,14.15
2023-02-28T20:52:47.776Z,13.82
2023-02-28T20:55:15.076Z,15.32
2023-02-28T20:57:42.334Z,15.55
2023-02-28T21:00:09.846Z,16.48
2023-02-28T21:02:37.765Z,15.52
2023-02-28T21:05:05.289Z,18.23
2023-02-28T21:07:32.623Z,15.50
2023-02-28T21:09:59.890Z,13.88
2023-02-28T21:12:27.119Z,14.23
2023-02-28T21:14:54.387Z,17.13
2023-02-28T21:17:21.607Z,10.95
2023-02-28T21:19:48.899Z,14.73
2023-02-28T21:22:16.300Z,14.85
2023-02-28T21:24:44.016Z,12.82
2023-02-28T21:27:11.773Z,16.10
2023-02-28T21:29:39.118Z,13.65
2023-02-28T21:32:07.587Z,16.05
2023-02-28T21:34:34.794Z,16.83
2023-02-28T21:37:02.443Z,15.52
2023-02-28T21:39:30.222Z,16.75
2023-02-28T21:42:03.525Z,15.02
2023-02-28T21:44:31.679Z,17.80
2023-02-28T21:47:02.138Z,16.52
2023-02-28T21:49:29.839Z,15.32
2023-02-28T21:51:57.590Z,14.57
2023-02-28T21:54:25.034Z,17.30
2023-02-28T21:56:52.433Z,17.95
2023-02-28T21:59:20.188Z,19.73
2023-02-28T22:01:48.403Z,17.60
2023-02-28T22:04:21.385Z,17.45
2023-02-28T22:06:50.336Z,19.05
2023-02-28T22:09:17.764Z,17.27
2023-02-28T22:11:45.434Z,18.65
2023-02-28T22:14:12.762Z,17.08
2023-02-28T22:16:50.705Z,18.23
2023-02-28T22:19:20.082Z,16.98
2023-02-28T22:21:47.605Z,16.38
2023-02-28T22:24:17.449Z,17.02
2023-02-28T22:26:44.822Z,16.58
2023-02-28T22:29:12.193Z,20.70
2023-02-28T22:31:39.518Z,19.75
2023-02-28T22:34:08.783Z,19.20
2023-02-28T22:36:36.421Z,17.98
2023-02-28T22:39:04.769Z,18.17
2023-02-28T22:41:32.530Z,19.77
2023-02-28T22:44:01.024Z,16.92
2023-02-28T22:46:29.864Z,12.73
2023-02-28T22:48:59.156Z,20.65
2023-02-28T22:51:27.026Z,20.05
2023-02-28T22:53:55.033Z,17.42
2023-02-28T22:56:23.386Z,20.23
2023-02-28T22:58:51.724Z,17.63
2023-02-28T23:01:20.353Z,19.10
2023-02-28T23:03:47.661Z,17.92
2023-02-28T23:06:14.891Z,18.80
2023-02-28T23:08:42.798Z,18.38
2023-02-28T23:11:10.125Z,19.27
2023-02-28T23:13:37.386Z,18.42
2023-02-28T23:16:05.700Z,19.10
2023-02-28T23:18:33.073Z,19.00
2023-02-28T23:21:00.428Z,20.13
2023-02-28T23:23:27.632Z,18.70
2023-02-28T23:25:54.950Z,24.42
2023-02-28T23:28:23.177Z,18.48
2023-02-28T23:30:51.745Z,20.45
2023-02-28T23:33:19.009Z,18.80
2023-02-28T23:35:46.363Z,22.13
2023-02-28T23:38:13.650Z,19.13
2023-02-28T23:40:41.891Z,22.58
2023-02-28T23:43:09.158Z,21.40
2023-02-28T23:45:36.527Z,24.15
2023-02-28T23:48:03.914Z,20.02
2023-02-28T23:50:31.530Z,21.60
2023-02-28T23:52:58.771Z,23.35
2023-02-28T23:55:26.159Z,23.40
2023-02-28T23:57:53.352Z,24.70
